createdAt,value
2016-12-02T00:01:04.477Z,8.84
2016-12-02T00:01:49.576Z,8.84
2016-12-02T00:02:49.599Z,8.81
2016-12-02T00:03:49.618Z,8.86
2016-12-02T00:04:49.636Z,8.91
2016-12-02T00:05:49.656Z,8.89
2016-12-02T00:06:49.672Z,8.89
2016-12-02T00:07:49.696Z,8.92
2016-12-02T00:08:49.762Z,8.92
2016-12-02T00:09:49.734Z,8.89
2016-12-02T00:10:49.756Z,8.98
2016-12-02T00:11:49.778Z,8.98
2016-12-02T00:12:49.797Z,8.94
2016-12-02T00:13:49.811Z,8.98
2016-12-02T00:14:49.831Z,9.01
2016-12-02T00:15:49.850Z,8.91
2016-12-02T00:17:04.796Z,8.91
2016-12-02T00:18:04.816Z,8.89
2016-12-02T00:19:04.834Z,8.92
2016-12-02T00:19:49.932Z,8.81
2016-12-02T00:20:49.955Z,8.84
2016-12-02T00:21:49.974Z,8.89
2016-12-02T00:22:49.990Z,8.89
2016-12-02T00:23:50.011Z,8.89
2016-12-02T00:24:50.030Z,8.91
2016-12-02T00:25:50.047Z,8.92
2016-12-02T00:26:50.074Z,8.89
2016-12-02T00:27:50.094Z,8.86
2016-12-02T00:28:50.110Z,8.79
2016-12-02T00:29:50.131Z,8.79
2016-12-02T00:30:50.151Z,8.73
2016-12-02T00:32:05.095Z,8.55
2016-12-02T00:32:50.221Z,8.68
2016-12-02T00:34:05.130Z,8.65
2016-12-02T00:35:05.150Z,8.71
2016-12-02T00:35:50.251Z,8.65
2016-12-02T00:36:50.275Z,8.63
2016-12-02T00:37:50.290Z,8.61
2016-12-02T00:38:50.306Z,8.53
2016-12-02T00:39:50.327Z,8.65
2016-12-02T00:40:50.353Z,8.58
2016-12-02T00:41:50.365Z,8.56
2016-12-02T00:43:05.314Z,8.58
2016-12-02T00:43:50.407Z,8.56
2016-12-02T00:44:50.428Z,8.58
2016-12-02T00:45:50.446Z,8.58
2016-12-02T00:46:50.464Z,8.58
2016-12-02T00:47:50.783Z,8.53
2016-12-02T00:49:05.428Z,8.58
2016-12-02T00:49:50.526Z,8.55
2016-12-02T00:50:50.550Z,8.52
2016-12-02T00:51:50.561Z,8.59
2016-12-02T00:52:50.588Z,8.53
2016-12-02T00:53:50.605Z,8.52
2016-12-02T00:54:50.626Z,8.5
2016-12-02T00:55:50.645Z,8.52
2016-12-02T00:56:50.658Z,8.48
2016-12-02T00:57:50.684Z,8.48
2016-12-02T00:58:50.800Z,8.4
2016-12-02T00:59:50.712Z,8.38
2016-12-02T01:00:50.739Z,8.43
2016-12-02T01:01:50.753Z,8.43
2016-12-02T01:02:50.774Z,8.43
2016-12-02T01:04:05.724Z,8.36
2016-12-02T01:04:50.819Z,8.41
2016-12-02T01:05:50.834Z,8.33
2016-12-02T01:06:50.852Z,8.36
2016-12-02T01:08:50.893Z,8.33
2016-12-02T01:09:50.909Z,8.44
2016-12-02T01:10:50.931Z,8.36
2016-12-02T01:11:51.006Z,8.29
2016-12-02T01:12:50.978Z,8.33
2016-12-02T01:13:50.988Z,8.26
2016-12-02T01:14:51.010Z,8.37
2016-12-02T01:16:05.956Z,8.23
2016-12-02T01:17:05.977Z,8.4
2016-12-02T01:17:51.075Z,8.38
2016-12-02T01:18:51.086Z,8.26
2016-12-02T01:20:06.028Z,8.29
2016-12-02T01:20:51.128Z,8.23
2016-12-02T01:21:51.151Z,8.2
2016-12-02T01:22:51.167Z,8.26
2016-12-02T01:23:51.224Z,8.22
2016-12-02T01:24:51.202Z,8.2
2016-12-02T01:25:51.225Z,8.25
2016-12-02T01:26:51.241Z,8.2
2016-12-02T01:27:51.257Z,8.23
2016-12-02T01:28:51.282Z,8.19
2016-12-02T01:29:51.302Z,8.07
2016-12-02T01:30:51.318Z,8.05
2016-12-02T01:31:51.343Z,8.04
2016-12-02T01:32:51.356Z,8
2016-12-02T01:33:51.378Z,7.98
2016-12-02T01:36:06.337Z,7.9
2016-12-02T01:37:51.457Z,8
2016-12-02T01:38:51.471Z,7.95
2016-12-02T01:39:51.497Z,8.01
2016-12-02T01:40:51.513Z,8.07
2016-12-02T01:41:51.533Z,8.04
2016-12-02T01:42:51.555Z,8.07
2016-12-02T01:43:51.570Z,8.05
2016-12-02T01:44:51.586Z,8.08
2016-12-02T01:45:51.608Z,8.11
2016-12-02T01:46:51.622Z,8.1
2016-12-02T01:47:51.658Z,8.07
2016-12-02T01:48:51.669Z,8.08
2016-12-02T01:49:51.690Z,8.08
2016-12-02T01:50:51.710Z,8.07
2016-12-02T01:52:06.648Z,8.01
2016-12-02T01:52:51.738Z,8.01
2016-12-02T01:53:51.762Z,8.04
2016-12-02T01:54:51.781Z,8.02
2016-12-02T01:55:52.107Z,8.01
2016-12-02T01:56:51.820Z,8
2016-12-02T01:57:51.841Z,8.01
2016-12-02T01:58:51.854Z,8.02
2016-12-02T01:59:51.874Z,8.07
2016-12-02T02:00:51.896Z,8.04
2016-12-02T02:01:51.914Z,7.98
2016-12-02T02:02:51.929Z,8.04
2016-12-02T02:03:51.953Z,8.08
2016-12-02T02:04:51.975Z,8.07
2016-12-02T02:05:51.986Z,8.1
2016-12-02T02:07:06.935Z,8
2016-12-02T02:07:52.126Z,8.08
2016-12-02T02:08:52.055Z,8.05
2016-12-02T02:09:52.067Z,8.04
2016-12-02T02:10:52.090Z,8.01
2016-12-02T02:11:52.111Z,8.02
2016-12-02T02:12:52.123Z,8.05
2016-12-02T02:13:52.142Z,8.1
2016-12-02T02:14:52.163Z,8.04
2016-12-02T02:15:52.183Z,7.97
2016-12-02T02:16:52.203Z,8.01
2016-12-02T02:17:52.223Z,8.01
2016-12-02T02:18:52.240Z,8.02
2016-12-02T02:19:52.253Z,8
2016-12-02T02:20:52.279Z,7.97
2016-12-02T02:21:52.297Z,7.97
2016-12-02T02:22:52.317Z,7.97
2016-12-02T02:23:52.340Z,7.9
2016-12-02T02:24:52.360Z,7.93
2016-12-02T02:25:52.378Z,7.95
2016-12-02T02:26:52.391Z,8
2016-12-02T02:27:52.413Z,7.92
2016-12-02T02:28:52.433Z,7.89
2016-12-02T02:29:52.452Z,7.8
2016-12-02T02:30:52.779Z,7.85
2016-12-02T02:31:52.488Z,7.92
2016-12-02T02:32:52.507Z,7.87
2016-12-02T02:33:52.528Z,7.82
2016-12-02T02:34:52.547Z,7.82
2016-12-02T02:35:52.566Z,7.87
2016-12-02T02:36:52.583Z,7.82
2016-12-02T02:37:52.605Z,7.8
2016-12-02T02:39:07.543Z,7.95
2016-12-02T02:39:52.646Z,7.89
2016-12-02T02:40:52.659Z,7.87
2016-12-02T02:42:07.602Z,7.89
2016-12-02T02:42:52.704Z,7.89
2016-12-02T02:43:52.722Z,7.87
2016-12-02T02:44:52.739Z,7.95
2016-12-02T02:45:52.760Z,7.86
2016-12-02T02:46:52.777Z,7.89
2016-12-02T02:47:52.795Z,7.86
2016-12-02T02:48:52.814Z,7.71
2016-12-02T02:49:52.837Z,7.8
2016-12-02T02:50:52.851Z,7.83
2016-12-02T02:51:52.870Z,7.77
2016-12-02T02:52:52.890Z,7.79
2016-12-02T02:54:07.834Z,7.82
2016-12-02T02:55:07.848Z,7.77
2016-12-02T02:56:07.870Z,7.79
2016-12-02T02:56:52.966Z,7.8
2016-12-02T02:58:53.009Z,7.79
2016-12-02T02:59:53.029Z,7.75
2016-12-02T03:00:53.055Z,7.71
2016-12-02T03:01:53.062Z,7.57
2016-12-02T03:02:53.083Z,7.58
2016-12-02T03:03:53.101Z,7.55
2016-12-02T03:04:53.116Z,7.68
2016-12-02T03:05:53.143Z,7.48
2016-12-02T03:06:53.157Z,7.48
2016-12-02T03:07:53.173Z,7.37
2016-12-02T03:08:53.189Z,7.35
2016-12-02T03:09:53.226Z,7.28
2016-12-02T03:11:08.153Z,7.25
2016-12-02T03:11:53.252Z,7.25
2016-12-02T03:12:53.320Z,7.25
2016-12-02T03:13:53.295Z,7.2
2016-12-02T03:14:53.307Z,7.21
2016-12-02T03:15:53.336Z,7.16
2016-12-02T03:16:53.345Z,7.16
2016-12-02T03:17:53.359Z,7.1
2016-12-02T03:18:53.382Z,7.1
2016-12-02T03:19:53.403Z,7.1
2016-12-02T03:20:53.419Z,7.1
2016-12-02T03:21:53.438Z,7.09
2016-12-02T03:22:53.457Z,7.06
2016-12-02T03:23:53.479Z,7.12
2016-12-02T03:24:53.494Z,6.95
2016-12-02T03:25:53.509Z,7.1
2016-12-02T03:27:08.455Z,7.03
2016-12-02T03:27:53.553Z,7.09
2016-12-02T03:29:53.590Z,7.02
2016-12-02T03:30:53.612Z,6.97
2016-12-02T03:31:53.637Z,6.98
2016-12-02T03:32:53.645Z,6.89
2016-12-02T03:33:53.667Z,6.98
2016-12-02T03:34:53.684Z,6.95
2016-12-02T03:35:53.708Z,6.97
2016-12-02T03:36:53.720Z,6.97
2016-12-02T03:37:53.741Z,6.95
2016-12-02T03:38:53.763Z,6.91
2016-12-02T03:39:53.777Z,6.87
2016-12-02T03:40:53.808Z,6.87
2016-12-02T03:42:08.737Z,6.89
2016-12-02T03:42:53.837Z,6.85
2016-12-02T03:43:53.857Z,6.84
2016-12-02T03:44:53.875Z,6.92
2016-12-02T03:45:53.895Z,6.89
2016-12-02T03:46:53.907Z,6.92
2016-12-02T03:47:53.928Z,6.92
2016-12-02T03:48:53.949Z,6.84
2016-12-02T03:49:53.966Z,6.8
2016-12-02T03:50:53.985Z,6.8
2016-12-02T03:51:54.001Z,6.74
2016-12-02T03:52:54.019Z,6.81
2016-12-02T03:53:54.040Z,6.81
2016-12-02T03:56:09.004Z,6.76
2016-12-02T03:56:54.105Z,6.73
2016-12-02T03:58:54.434Z,6.81
2016-12-02T03:59:54.154Z,6.87
2016-12-02T04:00:54.175Z,6.85
2016-12-02T04:01:54.187Z,6.92
2016-12-02T04:02:54.207Z,6.92
2016-12-02T04:03:54.525Z,6.98
2016-12-02T04:04:54.253Z,7.05
2016-12-02T04:05:54.264Z,6.97
2016-12-02T04:06:54.278Z,7.02
2016-12-02T04:07:54.300Z,7.06
2016-12-02T04:08:54.318Z,7.1
2016-12-02T04:09:54.345Z,7.09
2016-12-02T04:11:09.283Z,7.09
2016-12-02T04:12:09.301Z,6.99
2016-12-02T04:12:54.396Z,6.97
2016-12-02T04:14:09.337Z,6.77
2016-12-02T04:14:54.433Z,6.79
2016-12-02T04:15:54.453Z,6.74
2016-12-02T04:16:54.472Z,6.66
2016-12-02T04:17:54.491Z,6.56
2016-12-02T04:18:54.507Z,6.52
2016-12-02T04:19:54.529Z,6.33
2016-12-02T04:20:54.545Z,6.41
2016-12-02T04:21:54.565Z,6.36
2016-12-02T04:23:54.596Z,6.15
2016-12-02T04:24:54.612Z,6.15
2016-12-02T04:26:09.559Z,6.12
2016-12-02T04:26:54.650Z,6.09
2016-12-02T04:28:09.596Z,6.11
2016-12-02T04:28:54.693Z,6.12
2016-12-02T04:30:09.628Z,6.06
2016-12-02T04:30:54.732Z,6.17
2016-12-02T04:31:54.744Z,6
2016-12-02T04:32:54.768Z,6.11
2016-12-02T04:33:54.784Z,6.09
2016-12-02T04:34:54.796Z,6.22
2016-12-02T04:35:54.822Z,6.21
2016-12-02T04:36:54.832Z,6.18
2016-12-02T04:37:54.855Z,6.14
2016-12-02T04:38:54.872Z,6.09
2016-12-02T04:39:54.893Z,6.06
2016-12-02T04:40:54.909Z,6.06
2016-12-02T04:41:54.925Z,6
2016-12-02T04:42:54.943Z,5.99
2016-12-02T04:43:54.962Z,5.94
2016-12-02T04:44:54.981Z,5.86
2016-12-02T04:46:09.917Z,5.85
2016-12-02T04:46:55.015Z,5.79
2016-12-02T04:47:55.036Z,5.93
2016-12-02T04:48:55.051Z,5.83
2016-12-02T04:49:55.070Z,5.83
2016-12-02T04:50:55.088Z,5.81
2016-12-02T04:51:55.110Z,5.81
2016-12-02T04:52:55.124Z,5.68
2016-12-02T04:53:55.145Z,5.65
2016-12-02T04:54:55.164Z,5.74
2016-12-02T04:55:55.182Z,5.71
2016-12-02T04:56:55.197Z,5.78
2016-12-02T04:57:55.216Z,5.82
2016-12-02T04:58:55.235Z,5.64
2016-12-02T04:59:55.284Z,5.76
2016-12-02T05:01:10.195Z,5.65
2016-12-02T05:02:10.211Z,5.63
2016-12-02T05:02:55.303Z,5.64
2016-12-02T05:03:55.324Z,5.67
2016-12-02T05:04:55.349Z,5.72
2016-12-02T05:05:55.363Z,5.64
2016-12-02T05:06:55.378Z,5.64
2016-12-02T05:07:55.397Z,5.72
2016-12-02T05:08:55.414Z,5.65
2016-12-02T05:09:55.436Z,5.83
2016-12-02T05:10:55.453Z,5.83
2016-12-02T05:11:55.473Z,5.91
2016-12-02T05:12:55.486Z,5.99
2016-12-02T05:13:55.508Z,5.91
2016-12-02T05:14:55.521Z,5.91
2016-12-02T05:16:10.467Z,5.93
2016-12-02T05:17:10.479Z,5.96
2016-12-02T05:17:55.579Z,5.9
2016-12-02T05:19:10.516Z,5.89
2016-12-02T05:19:55.612Z,5.79
2016-12-02T05:20:55.664Z,5.83
2016-12-02T05:21:55.649Z,5.75
2016-12-02T05:22:55.666Z,5.82
2016-12-02T05:23:55.686Z,5.68
2016-12-02T05:24:55.707Z,5.79
2016-12-02T05:25:55.721Z,5.61
2016-12-02T05:26:55.738Z,5.63
2016-12-02T05:27:55.751Z,5.57
2016-12-02T05:28:55.772Z,5.71
2016-12-02T05:29:55.793Z,5.65
2016-12-02T05:30:55.815Z,5.67
2016-12-02T05:31:55.825Z,5.64
2016-12-02T05:32:55.846Z,5.63
2016-12-02T05:33:55.866Z,5.67
2016-12-02T05:34:55.888Z,5.78
2016-12-02T05:35:55.901Z,5.79
2016-12-02T05:36:55.918Z,5.72
2016-12-02T05:37:55.939Z,5.72
2016-12-02T05:38:55.952Z,5.74
2016-12-02T05:39:55.970Z,5.75
2016-12-02T05:40:55.991Z,5.75
2016-12-02T05:41:56.008Z,5.78
2016-12-02T05:42:56.024Z,5.71
2016-12-02T05:43:56.040Z,5.71
2016-12-02T05:44:56.065Z,5.72
2016-12-02T05:46:11.005Z,5.67
2016-12-02T05:47:11.021Z,5.63
2016-12-02T05:47:56.167Z,5.63
2016-12-02T05:49:11.052Z,5.61
2016-12-02T05:49:56.154Z,5.57
2016-12-02T05:51:56.183Z,5.54
2016-12-02T05:52:56.206Z,5.51
2016-12-02T05:53:56.247Z,5.49
2016-12-02T05:54:56.238Z,5.6
2016-12-02T05:55:56.260Z,5.46
2016-12-02T05:56:56.277Z,5.48
2016-12-02T05:57:56.297Z,5.42
2016-12-02T05:58:56.319Z,5.43
2016-12-02T05:59:56.333Z,5.48
2016-12-02T06:00:56.367Z,5.36
2016-12-02T06:01:56.369Z,5.3
2016-12-02T06:02:56.381Z,5.3
2016-12-02T06:03:56.395Z,5.36
2016-12-02T06:05:11.343Z,5.39
2016-12-02T06:05:56.465Z,5.35
2016-12-02T06:07:56.477Z,5.53
2016-12-02T06:08:56.491Z,5.51
2016-12-02T06:09:56.504Z,5.42
2016-12-02T06:10:56.524Z,5.43
2016-12-02T06:11:56.593Z,5.53
2016-12-02T06:12:56.561Z,5.39
2016-12-02T06:13:56.573Z,5.46
2016-12-02T06:14:56.596Z,5.43
2016-12-02T06:15:56.615Z,5.4
2016-12-02T06:16:56.659Z,5.43
2016-12-02T06:17:56.648Z,5.48
2016-12-02T06:21:11.627Z,5.35
2016-12-02T06:21:56.726Z,5.3
2016-12-02T06:22:56.739Z,5.33
2016-12-02T06:23:56.758Z,5.27
2016-12-02T06:25:56.787Z,5.22
2016-12-02T06:26:56.862Z,5.18
2016-12-02T06:27:56.826Z,5.15
2016-12-02T06:28:56.846Z,5.22
2016-12-02T06:29:56.862Z,5.22
2016-12-02T06:31:56.897Z,5.25
2016-12-02T06:32:56.939Z,5.3
2016-12-02T06:34:11.854Z,5.15
2016-12-02T06:35:11.872Z,5.22
2016-12-02T06:37:11.903Z,5.15
2016-12-02T06:37:57.003Z,5.04
2016-12-02T06:38:57.014Z,5.09
2016-12-02T06:39:57.035Z,5.17
2016-12-02T06:40:57.052Z,5.1
2016-12-02T06:41:57.071Z,5.09
2016-12-02T06:42:57.086Z,4.96
2016-12-02T06:43:57.101Z,4.97
2016-12-02T06:44:57.121Z,4.96
2016-12-02T06:45:57.148Z,4.94
2016-12-02T06:46:57.159Z,4.91
2016-12-02T06:48:57.201Z,4.91
2016-12-02T06:49:57.207Z,4.92
2016-12-02T06:50:57.231Z,4.82
2016-12-02T06:52:12.169Z,4.84
2016-12-02T06:52:57.259Z,4.8
2016-12-02T06:54:12.202Z,4.7
2016-12-02T06:54:57.304Z,4.8
2016-12-02T06:55:57.336Z,4.65
2016-12-02T06:56:57.333Z,4.73
2016-12-02T06:57:57.353Z,4.69
2016-12-02T06:58:57.372Z,4.72
2016-12-02T06:59:57.391Z,4.7
2016-12-02T07:00:57.404Z,4.82
2016-12-02T07:01:57.414Z,4.7
2016-12-02T07:02:57.434Z,4.73
2016-12-02T07:03:57.455Z,4.69
2016-12-02T07:04:57.468Z,4.63
2016-12-02T07:05:57.492Z,4.72
2016-12-02T07:07:57.529Z,4.69
2016-12-02T07:08:57.640Z,4.67
2016-12-02T07:09:57.561Z,4.7
2016-12-02T07:10:57.881Z,4.7
2016-12-02T07:11:57.591Z,4.72
2016-12-02T07:12:57.611Z,4.65
2016-12-02T07:13:57.625Z,4.65
2016-12-02T07:14:57.661Z,4.66
2016-12-02T07:15:57.657Z,4.69
2016-12-02T07:16:57.675Z,4.69
2016-12-02T07:17:57.700Z,4.67
2016-12-02T07:18:57.764Z,4.69
2016-12-02T07:19:57.731Z,4.7
2016-12-02T07:20:57.750Z,4.67
2016-12-02T07:21:57.770Z,4.69
2016-12-02T07:22:57.781Z,4.66
2016-12-02T07:24:12.724Z,4.66
2016-12-02T07:25:12.737Z,4.66
2016-12-02T07:25:57.834Z,4.7
2016-12-02T07:26:57.858Z,4.59
2016-12-02T07:27:57.876Z,4.66
2016-12-02T07:28:57.886Z,4.59
2016-12-02T07:29:57.904Z,4.55
2016-12-02T07:30:57.921Z,4.55
2016-12-02T07:31:57.940Z,4.6
2016-12-02T07:32:58.258Z,4.63
2016-12-02T07:33:57.970Z,4.62
2016-12-02T07:34:58.014Z,4.55
2016-12-02T07:35:58.009Z,4.63
2016-12-02T07:36:58.024Z,4.63
2016-12-02T07:37:58.038Z,4.63
2016-12-02T07:38:58.063Z,4.59
2016-12-02T07:40:13.000Z,4.72
2016-12-02T07:40:58.098Z,4.66
2016-12-02T07:41:58.115Z,4.67
2016-12-02T07:42:58.130Z,4.63
2016-12-02T07:43:58.144Z,4.63
2016-12-02T07:44:58.260Z,4.69
2016-12-02T07:45:58.234Z,4.65
2016-12-02T07:46:58.202Z,4.67
2016-12-02T07:47:58.219Z,4.66
2016-12-02T07:48:58.231Z,4.63
2016-12-02T07:49:58.251Z,4.63
2016-12-02T07:51:58.287Z,4.62
2016-12-02T07:52:58.301Z,4.67
2016-12-02T07:54:13.243Z,4.58
2016-12-02T07:54:58.338Z,4.62
2016-12-02T07:56:13.274Z,4.65
2016-12-02T07:56:58.368Z,4.62
2016-12-02T07:57:58.389Z,4.67
2016-12-02T07:58:58.416Z,4.66
2016-12-02T07:59:58.422Z,4.65
2016-12-02T08:00:58.436Z,4.63
2016-12-02T08:01:58.451Z,4.73
2016-12-02T08:02:58.475Z,4.73
2016-12-02T08:03:58.490Z,4.7
2016-12-02T08:04:58.506Z,4.69
2016-12-02T08:06:58.543Z,4.65
2016-12-02T08:08:13.486Z,4.6
2016-12-02T08:08:58.576Z,4.65
2016-12-02T08:09:58.595Z,4.69
2016-12-02T08:10:58.610Z,4.69
2016-12-02T08:12:13.554Z,4.66
2016-12-02T08:12:58.646Z,4.67
2016-12-02T08:13:58.664Z,4.69
2016-12-02T08:14:58.682Z,4.69
2016-12-02T08:15:58.697Z,4.69
2016-12-02T08:17:58.730Z,4.63
2016-12-02T08:18:58.800Z,4.65
2016-12-02T08:19:58.964Z,4.67
2016-12-02T08:20:58.783Z,4.69
2016-12-02T08:21:58.798Z,4.69
2016-12-02T08:22:58.824Z,4.8
2016-12-02T08:23:58.835Z,4.65
2016-12-02T08:24:58.849Z,4.7
2016-12-02T08:26:13.795Z,4.65
2016-12-02T08:27:13.813Z,4.67
2016-12-02T08:27:58.902Z,4.69
2016-12-02T08:28:58.924Z,4.72
2016-12-02T08:29:58.952Z,4.69
2016-12-02T08:30:58.960Z,4.67
2016-12-02T08:31:58.975Z,4.82
2016-12-02T08:32:58.996Z,4.77
2016-12-02T08:33:59.011Z,4.7
2016-12-02T08:34:59.028Z,4.8
2016-12-02T08:35:59.074Z,4.8
2016-12-02T08:36:59.110Z,4.91
2016-12-02T08:37:59.081Z,4.89
2016-12-02T08:38:59.101Z,4.88
2016-12-02T08:39:59.121Z,4.92
2016-12-02T08:40:59.130Z,4.89
2016-12-02T08:41:59.150Z,4.99
2016-12-02T08:42:59.167Z,4.94
2016-12-02T08:43:59.183Z,4.97
2016-12-02T08:44:59.197Z,5.02
2016-12-02T08:45:59.214Z,5
2016-12-02T08:46:59.236Z,5.07
2016-12-02T08:47:59.264Z,5
2016-12-02T08:48:59.272Z,5.06
2016-12-02T08:49:59.295Z,5.17
2016-12-02T08:50:59.305Z,5.07
2016-12-02T08:51:59.321Z,5.1
2016-12-02T08:52:59.345Z,5.04
2016-12-02T08:53:59.359Z,5.12
2016-12-02T08:54:59.379Z,5.03
2016-12-02T08:55:59.404Z,5.12
2016-12-02T08:57:14.336Z,5.07
2016-12-02T08:58:14.356Z,5.12
2016-12-02T08:59:14.677Z,5.13
2016-12-02T08:59:59.465Z,5.15
2016-12-02T09:00:59.481Z,5.17
2016-12-02T09:01:59.499Z,5.25
2016-12-02T09:02:59.516Z,5.3
2016-12-02T09:03:59.537Z,5.2
2016-12-02T09:04:59.553Z,5.27
2016-12-02T09:05:59.575Z,5.3
2016-12-02T09:06:59.593Z,5.25
2016-12-02T09:07:59.910Z,5.33
2016-12-02T09:08:59.620Z,5.33
2016-12-02T09:09:59.637Z,5.33
2016-12-02T09:10:59.662Z,5.3
2016-12-02T09:11:59.682Z,5.4
2016-12-02T09:12:59.701Z,5.31
2016-12-02T09:13:59.709Z,5.36
2016-12-02T09:15:14.656Z,5.38
2016-12-02T09:15:59.745Z,5.31
2016-12-02T09:16:59.766Z,5.36
2016-12-02T09:17:59.782Z,5.42
2016-12-02T09:18:59.801Z,5.39
2016-12-02T09:20:00.127Z,5.38
2016-12-02T09:20:59.839Z,5.46
2016-12-02T09:21:59.864Z,5.45
2016-12-02T09:22:59.876Z,5.45
2016-12-02T09:23:59.890Z,5.42
2016-12-02T09:24:59.907Z,5.42
2016-12-02T09:25:59.926Z,5.43
2016-12-02T09:27:14.871Z,5.4
2016-12-02T09:27:59.965Z,5.48
2016-12-02T09:30:00.003Z,5.57
2016-12-02T09:31:14.943Z,5.4
2016-12-02T09:32:00.033Z,5.45
2016-12-02T09:33:00.054Z,5.45
2016-12-02T09:34:00.075Z,5.53
2016-12-02T09:35:00.095Z,5.45
2016-12-02T09:36:00.105Z,5.45
2016-12-02T09:37:00.127Z,5.48
2016-12-02T09:38:00.144Z,5.4
2016-12-02T09:39:00.164Z,5.53
2016-12-02T09:40:00.183Z,5.48
2016-12-02T09:42:00.222Z,5.49
2016-12-02T09:43:00.232Z,5.53
2016-12-02T09:44:00.252Z,5.48
2016-12-02T09:45:00.271Z,5.56
2016-12-02T09:46:00.285Z,5.46
2016-12-02T09:47:15.224Z,5.48
2016-12-02T09:48:00.319Z,5.57
2016-12-02T09:49:00.351Z,5.57
2016-12-02T09:50:00.362Z,5.67
2016-12-02T09:51:00.381Z,5.67
2016-12-02T09:52:00.396Z,5.64
2016-12-02T09:53:00.409Z,5.61
2016-12-02T09:54:00.429Z,5.68
2016-12-02T09:55:00.527Z,5.75
2016-12-02T09:56:00.471Z,5.6
2016-12-02T09:57:00.487Z,5.78
2016-12-02T09:58:00.505Z,5.65
2016-12-02T09:59:00.525Z,5.61
2016-12-02T10:00:00.593Z,5.67
2016-12-02T10:02:15.502Z,5.61
2016-12-02T10:03:00.601Z,5.61
2016-12-02T10:04:00.615Z,5.57
2016-12-02T10:05:00.627Z,5.64
2016-12-02T10:07:00.667Z,5.61
2016-12-02T10:08:00.695Z,5.61
2016-12-02T10:09:00.713Z,5.61
2016-12-02T10:10:00.754Z,5.64
2016-12-02T10:11:00.739Z,5.65
2016-12-02T10:12:00.764Z,5.65
2016-12-02T10:13:00.780Z,5.75
2016-12-02T10:14:00.802Z,5.75
2016-12-02T10:15:00.816Z,5.65
2016-12-02T10:16:00.833Z,5.76
2016-12-02T10:17:00.849Z,5.78
2016-12-02T10:18:00.871Z,5.71
2016-12-02T10:20:00.909Z,5.85
2016-12-02T10:21:00.922Z,5.86
2016-12-02T10:22:00.942Z,5.82
2016-12-02T10:23:00.989Z,5.93
2016-12-02T10:24:00.975Z,5.82
2016-12-02T10:25:00.996Z,5.82
2016-12-02T10:27:01.031Z,5.99
2016-12-02T10:28:01.048Z,5.97
2016-12-02T10:29:01.068Z,5.94
2016-12-02T10:30:01.387Z,5.82
2016-12-02T10:31:16.030Z,5.9
2016-12-02T10:32:01.124Z,5.9
2016-12-02T10:33:16.111Z,6
2016-12-02T10:34:16.081Z,5.93
2016-12-02T10:35:01.178Z,5.91
2016-12-02T10:36:01.197Z,5.93
2016-12-02T10:37:01.212Z,5.9
2016-12-02T10:39:01.248Z,6
2016-12-02T10:40:01.270Z,5.99
2016-12-02T10:41:01.285Z,5.99
2016-12-02T10:42:01.304Z,6.08
2016-12-02T10:43:01.324Z,6.12
2016-12-02T10:44:01.346Z,6.04
2016-12-02T10:45:01.361Z,6.12
2016-12-02T10:46:01.376Z,6.03
2016-12-02T10:48:01.413Z,6.04
2016-12-02T10:49:16.355Z,5.89
2016-12-02T10:50:16.386Z,6.14
2016-12-02T10:51:01.951Z,6.12
2016-12-02T10:52:01.487Z,6.09
2016-12-02T10:53:01.509Z,6.09
2016-12-02T10:54:01.529Z,6.12
2016-12-02T10:56:01.557Z,6.06
2016-12-02T10:57:01.570Z,6.11
2016-12-02T10:58:01.600Z,6.09
2016-12-02T10:59:01.616Z,6.06
2016-12-02T11:00:01.628Z,6.11
2016-12-02T11:01:01.646Z,6.11
2016-12-02T11:02:01.699Z,6.12
2016-12-02T11:03:02.140Z,6.11
2016-12-02T11:04:02.342Z,6.12
2016-12-02T11:05:01.721Z,6.15
2016-12-02T11:06:16.733Z,6.11
2016-12-02T11:07:01.761Z,6.21
2016-12-02T11:08:01.778Z,6.12
2016-12-02T11:09:01.790Z,6.15
2016-12-02T11:10:01.813Z,6.33
2016-12-02T11:11:01.831Z,6.14
2016-12-02T11:12:01.850Z,6.18
2016-12-02T11:13:01.867Z,6.15
2016-12-02T11:14:01.885Z,6.06
2016-12-02T11:15:01.902Z,6.08
2016-12-02T11:16:01.925Z,6.11
2016-12-02T11:17:01.943Z,6.09
2016-12-02T11:18:01.963Z,5.97
2016-12-02T11:19:01.978Z,6.06
2016-12-02T11:20:02.002Z,6.12
2016-12-02T11:21:02.017Z,6.11
2016-12-02T11:22:16.954Z,6.15
2016-12-02T11:23:02.055Z,6.19
2016-12-02T11:24:02.074Z,6.17
2016-12-02T11:25:02.089Z,6.25
2016-12-02T11:26:02.166Z,6.31
2016-12-02T11:27:02.126Z,6.3
2016-12-02T11:28:02.138Z,6.22
2016-12-02T11:29:02.173Z,6.33
2016-12-02T11:30:02.180Z,6.34
2016-12-02T11:31:02.197Z,6.34
2016-12-02T11:32:02.218Z,6.33
2016-12-02T11:33:02.238Z,6.31
2016-12-02T11:34:02.254Z,6.33
2016-12-02T11:35:02.323Z,6.33
2016-12-02T11:36:02.288Z,6.28
2016-12-02T11:37:17.233Z,6.3
2016-12-02T11:38:02.328Z,6.34
2016-12-02T11:39:02.343Z,6.41
2016-12-02T11:40:17.286Z,6.41
2016-12-02T11:41:02.383Z,6.4
2016-12-02T11:42:02.402Z,6.51
2016-12-02T11:43:02.419Z,6.41
2016-12-02T11:44:02.445Z,6.43
2016-12-02T11:45:02.454Z,6.46
2016-12-02T11:46:02.480Z,6.49
2016-12-02T11:47:02.797Z,6.55
2016-12-02T11:48:02.509Z,6.64
2016-12-02T11:49:02.530Z,6.62
2016-12-02T11:50:02.551Z,6.54
2016-12-02T11:51:02.568Z,6.54
2016-12-02T11:52:02.588Z,6.55
2016-12-02T11:53:02.905Z,6.58
2016-12-02T11:54:02.622Z,6.59
2016-12-02T11:55:17.563Z,6.62
2016-12-02T11:57:02.682Z,6.62
2016-12-02T11:58:02.695Z,6.73
2016-12-02T11:59:02.720Z,6.71
2016-12-02T12:00:03.039Z,6.61
2016-12-02T12:01:02.752Z,6.59
2016-12-02T12:02:02.771Z,6.58
2016-12-02T12:03:02.788Z,6.52
2016-12-02T12:04:02.808Z,6.62
2016-12-02T12:05:02.828Z,6.56
2016-12-02T12:07:02.865Z,6.51
2016-12-02T12:08:02.883Z,6.36
2016-12-02T12:09:17.821Z,6.38
2016-12-02T12:10:02.917Z,6.54
2016-12-02T12:11:02.934Z,6.52
2016-12-02T12:12:02.954Z,6.49
2016-12-02T12:13:02.976Z,6.43
2016-12-02T12:14:02.996Z,6.61
2016-12-02T12:15:03.012Z,6.55
2016-12-02T12:16:03.029Z,6.55
2016-12-02T12:17:03.047Z,6.59
2016-12-02T12:18:03.070Z,6.55
2016-12-02T12:19:03.079Z,6.41
2016-12-02T12:20:03.112Z,6.4
2016-12-02T12:21:03.121Z,6.62
2016-12-02T12:22:03.140Z,6.38
2016-12-02T12:23:03.159Z,6.46
2016-12-02T12:24:03.176Z,6.56
2016-12-02T12:25:18.122Z,6.46
2016-12-02T12:26:03.214Z,6.44
2016-12-02T12:27:03.232Z,6.49
2016-12-02T12:28:03.260Z,6.43
2016-12-02T12:29:03.272Z,6.52
2016-12-02T12:30:03.294Z,6.52
2016-12-02T12:31:03.310Z,6.44
2016-12-02T12:32:03.334Z,6.48
2016-12-02T12:33:03.343Z,6.37
2016-12-02T12:35:03.382Z,6.28
2016-12-02T12:36:03.400Z,6.34
2016-12-02T12:37:03.417Z,6.37
2016-12-02T12:38:03.441Z,6.34
2016-12-02T12:39:03.460Z,6.31
2016-12-02T12:40:03.485Z,6.34
2016-12-02T12:41:18.415Z,6.25
2016-12-02T12:43:03.532Z,6.28
2016-12-02T12:44:03.548Z,6.36
2016-12-02T12:45:03.567Z,6.41
2016-12-02T12:46:03.584Z,6.41
2016-12-02T12:47:03.901Z,6.4
2016-12-02T12:48:03.619Z,6.44
2016-12-02T12:49:03.638Z,6.46
2016-12-02T12:50:03.654Z,6.48
2016-12-02T12:51:03.677Z,6.28
2016-12-02T12:53:03.715Z,6.41
2016-12-02T12:54:03.729Z,6.51
2016-12-02T12:55:03.746Z,6.36
2016-12-02T12:56:04.066Z,6.33
2016-12-02T12:57:18.713Z,6.43
2016-12-02T12:58:18.726Z,6.44
2016-12-02T12:59:03.828Z,6.41
2016-12-02T13:00:03.845Z,6.4
2016-12-02T13:01:03.917Z,6.48
2016-12-02T13:02:03.883Z,6.49
2016-12-02T13:03:03.895Z,6.41
2016-12-02T13:04:03.920Z,6.41
2016-12-02T13:05:03.938Z,6.41
2016-12-02T13:06:03.949Z,6.52
2016-12-02T13:07:03.975Z,6.38
2016-12-02T13:09:04.013Z,6.37
2016-12-02T13:10:04.034Z,6.44
2016-12-02T13:11:04.094Z,6.46
2016-12-02T13:12:18.992Z,6.3
2016-12-02T13:13:04.082Z,6.3
2016-12-02T13:14:04.157Z,6.31
2016-12-02T13:15:04.122Z,6.3
2016-12-02T13:16:04.148Z,6.27
2016-12-02T13:17:04.161Z,6.21
2016-12-02T13:18:04.180Z,6.31
2016-12-02T13:19:04.194Z,6.33
2016-12-02T13:20:04.212Z,6.37
2016-12-02T13:21:04.245Z,6.31
2016-12-02T13:22:04.260Z,6.19
2016-12-02T13:23:04.271Z,6.17
2016-12-02T13:24:04.291Z,6.18
2016-12-02T13:25:04.306Z,6.27
2016-12-02T13:26:04.329Z,6.27
2016-12-02T13:27:04.340Z,6.27
2016-12-02T13:28:04.365Z,6.25
2016-12-02T13:29:19.300Z,6.33
2016-12-02T13:30:04.398Z,6.31
2016-12-02T13:31:04.420Z,6.36
2016-12-02T13:32:04.436Z,6.22
2016-12-02T13:33:04.461Z,6.19
2016-12-02T13:34:04.466Z,6.28
2016-12-02T13:35:04.490Z,6.34
2016-12-02T13:36:04.510Z,6.3
2016-12-02T13:37:04.529Z,6.3
2016-12-02T13:38:04.546Z,6.27
2016-12-02T13:39:04.572Z,6.28
2016-12-02T13:40:04.582Z,6.22
2016-12-02T13:41:04.601Z,6.3
2016-12-02T13:42:04.619Z,6.25
2016-12-02T13:44:19.579Z,6.17
2016-12-02T13:45:04.672Z,6.18
2016-12-02T13:46:04.697Z,6.12
2016-12-02T13:47:04.710Z,6.17
2016-12-02T13:49:04.749Z,6.09
2016-12-02T13:50:04.766Z,6.04
2016-12-02T13:51:04.789Z,6.04
2016-12-02T13:52:04.798Z,6.11
2016-12-02T13:53:04.820Z,6.09
2016-12-02T13:54:04.843Z,6.11
2016-12-02T13:55:04.859Z,6.14
2016-12-02T13:56:04.876Z,6.12
2016-12-02T13:57:04.897Z,6.11
2016-12-02T13:58:04.912Z,6.14
2016-12-02T13:59:04.935Z,6.04
2016-12-02T14:00:19.882Z,6.15